Time;durP1;ratioP1;P1;durP2;ratioP2;P2;SDS_P1;SDS_P2;PMS_P1;PMS_P2;Temp;Humidity;BMP_temperature;BMP_pressure;BME280_temperature;BME280_humidity;BME280_pressure;Samples;Min_cycle;Max_cycle;Signal;HPM_P1;HPM_P2
2023/01/22 00:00:34;;;;;;;2.10;1.57;;;;;;;5.27;100.00;99113.59;5113031;28;20233;-63
2023/01/22 00:03:01;;;;;;;3.70;2.60;;;;;;;5.24;100.00;99117.09;5112942;28;20208;-63
2023/01/22 00:05:28;;;;;;;3.33;2.07;;;;;;;5.13;100.00;99107.50;5113086;28;20586;-61
2023/01/22 00:07:55;;;;;;;4.00;2.63;;;;;;;5.07;100.00;99120.47;5112902;28;20204;-61
2023/01/22 00:10:24;;;;;;;3.83;1.80;;;;;;;5.07;100.00;99125.53;5112713;28;20217;-63
2023/01/22 00:12:50;;;;;;;3.03;2.03;;;;;;;5.14;100.00;99136.19;5112728;28;20681;-63
2023/01/22 00:15:17;;;;;;;3.03;2.13;;;;;;;5.17;100.00;99131.78;5112616;28;20213;-61
2023/01/22 00:17:44;;;;;;;5.40;2.87;;;;;;;5.27;100.00;99126.28;5112689;28;20230;-61
2023/01/22 00:20:13;;;;;;;3.10;2.20;;;;;;;5.18;100.00;99142.75;5112645;28;20229;-63
2023/01/22 00:22:40;;;;;;;2.83;2.33;;;;;;;5.08;100.00;99137.28;5112905;28;20696;-61
2023/01/22 00:25:10;;;;;;;2.03;1.83;;;;;;;5.14;100.00;99139.53;5112572;28;20314;-63
2023/01/22 00:27:40;;;;;;;2.97;1.93;;;;;;;5.15;100.00;99137.84;5112489;27;20201;-61
2023/01/22 00:30:08;;;;;;;1.73;1.50;;;;;;;5.09;100.00;99136.41;5112893;28;20224;-63
2023/01/22 00:32:35;;;;;;;2.83;2.07;;;;;;;5.15;100.00;99125.97;5112679;28;20197;-61
2023/01/22 00:35:02;;;;;;;2.33;2.07;;;;;;;5.18;100.00;99125.81;5112690;28;20244;-61
2023/01/22 00:37:29;;;;;;;5.70;1.83;;;;;;;5.18;100.00;99123.28;5112283;28;20693;-61
2023/01/22 00:39:56;;;;;;;2.67;2.23;;;;;;;5.17;100.00;99126.69;5112417;28;20239;-61
2023/01/22 00:42:23;;;;;;;5.87;2.27;;;;;;;4.95;100.00;99139.63;5112146;28;20197;-63
2023/01/22 00:44:51;;;;;;;3.03;1.53;;;;;;;4.96;100.00;99140.44;5111928;28;20221;-61
2023/01/22 00:47:18;;;;;;;3.17;1.83;;;;;;;5.04;100.00;99140.88;5112231;28;20585;-63
2023/01/22 00:49:45;;;;;;;2.73;2.50;;;;;;;4.96;100.00;99148.84;5112134;28;20217;-61
2023/01/22 00:52:12;;;;;;;1.97;1.60;;;;;;;4.99;100.00;99158.03;5112070;28;20207;-61
2023/01/22 00:54:39;;;;;;;3.07;2.23;;;;;;;4.95;100.00;99171.75;5112327;28;20264;-63
2023/01/22 00:57:05;;;;;;;3.77;2.70;;;;;;;4.62;100.00;99172.41;5112219;28;20575;-60
2023/01/22 00:59:32;;;;;;;6.13;4.07;;;;;;;4.57;100.00;99187.03;5111621;28;20251;-63
2023/01/22 01:02:00;;;;;;;3.17;1.73;;;;;;;4.60;100.00;99184.34;5112441;28;20216;-61
2023/01/22 01:04:27;;;;;;;4.17;2.20;;;;;;;4.47;100.00;99176.47;5111906;28;20213;-63
2023/01/22 01:06:54;;;;;;;1.37;1.20;;;;;;;4.74;100.00;99176.94;5111653;28;20201;-61
2023/01/22 01:09:21;;;;;;;2.53;2.33;;;;;;;4.50;100.00;99180.56;5111584;28;20300;-63
2023/01/22 01:11:48;;;;;;;8.83;1.53;;;;;;;4.43;100.00;99174.16;5111662;28;20204;-60
2023/01/22 01:14:15;;;;;;;2.77;2.13;;;;;;;4.34;100.00;99169.53;5111589;28;20225;-63
2023/01/22 01:16:42;;;;;;;4.28;2.55;;;;;;;4.41;100.00;99176.75;5111275;28;20958;-63
2023/01/22 01:19:12;;;;;;;2.67;2.43;;;;;;;4.52;100.00;99186.41;5111745;28;20285;-63
2023/01/22 01:21:39;;;;;;;3.37;1.43;;;;;;;4.56;100.00;99192.97;5111769;28;20197;-63
2023/01/22 01:24:06;;;;;;;4.60;2.27;;;;;;;4.56;100.00;99194.69;5111259;28;20304;-63
2023/01/22 01:26:34;;;;;;;2.70;2.40;;;;;;;4.57;100.00;99181.97;5111761;28;20228;-63
2023/01/22 01:29:03;;;;;;;2.87;2.03;;;;;;;4.69;100.00;99180.56;5111312;28;20277;-63
2023/01/22 01:31:30;;;;;;;3.23;1.67;;;;;;;4.71;100.00;99174.53;5111362;28;20259;-63
2023/01/22 01:33:57;;;;;;;3.67;2.03;;;;;;;4.72;100.00;99176.16;5111366;28;20224;-63
2023/01/22 01:36:26;;;;;;;1.90;1.33;;;;;;;4.61;100.00;99175.84;5111175;28;20221;-63
2023/01/22 01:38:54;;;;;;;3.43;3.13;;;;;;;4.61;100.00;99178.38;5111309;28;20221;-63
2023/01/22 01:41:24;;;;;;;1.87;1.70;;;;;;;4.76;100.00;99177.66;5111028;28;20228;-61
2023/01/22 01:44:06;;;;;;;1.67;1.50;;;;;;;4.82;100.00;99191.75;5110723;28;20302;-63
2023/01/22 01:46:36;;;;;;;2.77;2.33;;;;;;;4.66;100.00;99196.72;5111137;28;20696;-63
2023/01/22 01:49:03;;;;;;;4.03;2.07;;;;;;;4.71;100.00;99194.81;5111184;28;20224;-63
2023/01/22 01:51:34;;;;;;;2.30;1.80;;;;;;;4.78;100.00;99194.50;5111059;28;20209;-62
2023/01/22 01:54:04;;;;;;;1.53;1.13;;;;;;;4.81;100.00;99195.19;5110790;28;20221;-63
2023/01/22 01:56:35;;;;;;;4.43;1.73;;;;;;;4.87;100.00;99189.00;5110778;28;20287;-63
2023/01/22 01:59:07;;;;;;;1.57;1.47;;;;;;;4.71;100.00;99194.81;5110902;28;20231;-63
2023/01/22 02:01:34;;;;;;;2.70;2.23;;;;;;;4.89;100.00;99182.16;5110927;28;20232;-63
2023/01/22 02:04:01;;;;;;;4.10;1.30;;;;;;;4.81;100.00;99186.78;5110627;28;20232;-61
2023/01/22 02:06:28;;;;;;;1.93;1.70;;;;;;;4.87;100.00;99189.00;5110491;28;20375;-61
2023/01/22 02:08:59;;;;;;;1.80;1.40;;;;;;;4.88;100.00;99190.63;5110295;28;20232;-63
2023/01/22 02:11:27;;;;;;;4.23;2.20;;;;;;;4.80;100.00;99192.72;5110055;28;20220;-63
2023/01/22 02:14:00;;;;;;;3.93;2.23;;;;;;;4.87;100.00;99189.00;5110511;28;20221;-61
2023/01/22 02:16:27;;;;;;;2.13;1.90;;;;;;;4.83;100.00;99192.56;5110712;28;20208;-61
2023/01/22 02:18:54;;;;;;;1.87;1.77;;;;;;;4.75;100.00;99196.28;5110432;28;20229;-61
2023/01/22 02:21:31;;;;;;;3.23;1.63;;;;;;;4.72;100.00;99196.44;5110164;28;20713;-62
2023/01/22 02:23:58;;;;;;;5.03;1.63;;;;;;;4.83;100.00;99195.94;5110222;28;20232;-61
2023/01/22 02:26:25;;;;;;;3.13;1.83;;;;;;;4.94;100.00;99196.22;5110340;28;20201;-63
2023/01/22 02:28:52;;;;;;;3.63;2.53;;;;;;;4.70;100.00;99203.28;5110038;28;20299;-61
2023/01/22 02:31:19;;;;;;;2.53;1.97;;;;;;;4.69;100.00;99196.56;5110267;28;20213;-63
2023/01/22 02:33:46;;;;;;;1.37;1.27;;;;;;;4.72;100.00;99186.31;5110186;28;20228;-63
2023/01/22 02:36:12;;;;;;;3.30;2.73;;;;;;;4.83;100.00;99187.50;5110180;28;20201;-61
2023/01/22 02:38:41;;;;;;;2.03;1.90;;;;;;;4.92;100.00;99192.97;5110185;28;20225;-63
2023/01/22 02:41:09;;;;;;;3.40;2.23;;;;;;;4.74;100.00;99197.19;5110205;28;20343;-63
2023/01/22 02:43:36;;;;;;;1.97;1.63;;;;;;;4.84;100.00;99201.81;5110119;28;20228;-61
2023/01/22 02:46:03;;;;;;;2.33;1.60;;;;;;;4.85;100.00;99208.53;5110204;28;20226;-61
2023/01/22 02:48:29;;;;;;;2.90;1.70;;;;;;;4.79;100.00;99213.88;5109974;28;20227;-61
2023/01/22 02:50:56;;;;;;;1.87;1.03;;;;;;;4.72;100.00;99216.69;5109992;28;20208;-61
2023/01/22 02:53:23;;;;;;;1.73;1.40;;;;;;;4.79;100.00;99216.41;5109811;28;20201;-61
2023/01/22 02:55:51;;;;;;;2.20;1.73;;;;;;;4.79;100.00;99216.41;5109783;28;20203;-61
2023/01/22 02:58:18;;;;;;;2.20;1.63;;;;;;;4.76;100.00;99213.13;5109991;28;20193;-63
2023/01/22 03:00:45;;;;;;;0.80;0.80;;;;;;;4.83;100.00;99217.88;5109910;28;20233;-61
2023/01/22 03:03:14;;;;;;;1.43;1.03;;;;;;;4.83;100.00;99218.75;5109645;28;20193;-61
2023/01/22 03:05:44;;;;;;;1.67;1.53;;;;;;;4.80;100.00;99212.97;5109819;28;20201;-61
2023/01/22 03:08:11;;;;;;;2.27;1.43;;;;;;;4.87;100.00;99209.28;5109893;28;20266;-63
2023/01/22 03:10:38;;;;;;;1.80;1.67;;;;;;;4.89;100.00;99218.44;5109894;28;20618;-63
2023/01/22 03:21:19;;;;;;;2.90;1.77;;;;;;;4.96;100.00;99226.56;5109799;28;20613;-61
2023/01/22 03:23:48;;;;;;;5.00;1.67;;;;;;;4.81;100.00;99227.28;5113023;28;20304;-61
2023/01/22 03:26:15;;;;;;;1.40;1.13;;;;;;;4.81;100.00;99229.81;5113700;28;20201;-63
2023/01/22 03:28:44;;;;;;;2.27;1.40;;;;;;;4.90;100.00;99244.59;5113925;28;20716;-63
2023/01/22 03:31:12;;;;;;;2.33;2.07;;;;;;;4.97;100.00;99240.88;5113695;28;20202;-61
2023/01/22 03:33:39;;;;;;;4.80;3.07;;;;;;;4.89;100.00;99242.97;5113403;28;20217;-63
2023/01/22 03:36:09;;;;;;;2.77;1.67;;;;;;;5.10;100.00;99241.94;5113277;28;20688;-63
2023/01/22 03:38:36;;;;;;;1.63;1.27;;;;;;;5.00;100.00;99245.78;5113491;28;20217;-63
2023/01/22 03:41:04;;;;;;;3.43;2.27;;;;;;;4.71;100.00;99235.31;5113485;28;20248;-63
2023/01/22 03:43:32;;;;;;;2.80;1.40;;;;;;;4.73;100.00;99230.16;5113078;28;20771;-61
2023/01/22 03:46:07;;;;;;;2.40;2.00;;;;;;;4.73;100.00;99237.78;5113476;28;20612;-61
2023/01/22 03:48:34;;;;;;;1.93;1.70;;;;;;;4.70;100.00;99240.44;5113358;28;20220;-63
2023/01/22 03:51:08;;;;;;;4.00;2.23;;;;;;;4.84;100.00;99237.28;5113530;28;20292;-61
2023/01/22 03:53:35;;;;;;;1.07;1.07;;;;;;;4.82;100.00;99237.34;5113278;28;20217;-61
2023/01/22 03:56:04;;;;;;;1.60;1.50;;;;;;;4.81;100.00;99250.09;5113361;28;20206;-61
2023/01/22 03:58:32;;;;;;;4.90;1.40;;;;;;;4.81;100.00;99245.03;5113019;28;20217;-62
2023/01/22 04:01:01;;;;;;;6.10;2.00;;;;;;;4.88;100.00;99246.38;5112740;28;20233;-61
2023/01/22 04:03:30;;;;;;;2.63;1.77;;;;;;;4.99;100.00;99247.50;5112558;28;20406;-63
2023/01/22 04:05:59;;;;;;;1.60;1.47;;;;;;;5.07;100.00;99257.31;5112936;28;20203;-63
2023/01/22 04:08:27;;;;;;;2.57;2.37;;;;;;;5.01;100.00;99262.66;5112705;28;20205;-63
2023/01/22 04:10:54;;;;;;;2.50;1.97;;;;;;;5.06;100.00;99264.97;5112842;28;20538;-63
2023/01/22 04:13:21;;;;;;;1.17;1.13;;;;;;;4.97;100.00;99276.34;5112689;28;20204;-61
2023/01/22 04:15:47;;;;;;;2.90;1.57;;;;;;;4.85;100.00;99271.84;5112980;28;20212;-63
2023/01/22 04:18:14;;;;;;;3.70;1.33;;;;;;;4.95;100.00;99285.75;5112567;28;20202;-61
2023/01/22 04:20:43;;;;;;;1.93;1.70;;;;;;;4.91;100.00;99276.63;5112874;28;20225;-61
2023/01/22 04:23:10;;;;;;;1.70;1.60;;;;;;;5.10;100.00;99292.63;5112162;28;20202;-61
2023/01/22 04:25:37;;;;;;;1.93;1.07;;;;;;;4.98;100.00;99298.28;5112878;28;20201;-63
2023/01/22 04:28:05;;;;;;;1.37;1.10;;;;;;;5.03;100.00;99296.34;5112188;28;20206;-63
2023/01/22 04:30:32;;;;;;;2.67;2.10;;;;;;;4.88;100.00;99282.66;5112452;28;20326;-63
2023/01/22 04:32:59;;;;;;;2.37;1.57;;;;;;;4.95;100.00;99290.81;5111774;28;20224;-64
2023/01/22 04:35:26;;;;;;;1.07;0.97;;;;;;;4.96;100.00;99284.84;5112404;28;20221;-61
2023/01/22 04:37:54;;;;;;;2.20;1.83;;;;;;;4.95;100.00;99288.28;5112146;28;20206;-63
2023/01/22 04:40:21;;;;;;;4.50;1.87;;;;;;;5.12;100.00;99298.47;5112049;28;20213;-61
2023/01/22 04:42:48;;;;;;;3.13;1.97;;;;;;;5.00;100.00;99291.41;5111958;28;20197;-63
2023/01/22 04:45:15;;;;;;;2.00;1.53;;;;;;;4.84;100.00;99296.38;5112371;28;20302;-61
2023/01/22 04:47:43;;;;;;;9.07;2.57;;;;;;;4.73;100.00;99293.50;5111894;28;20197;-61
2023/01/22 04:50:16;;;;;;;2.43;1.87;;;;;;;4.73;100.00;99294.31;5112098;28;20217;-61
2023/01/22 04:52:43;;;;;;;3.03;2.37;;;;;;;4.81;100.00;99290.63;5112007;28;20202;-61
2023/01/22 04:55:12;;;;;;;4.77;2.83;;;;;;;4.73;100.00;99290.97;5111863;28;20216;-62
2023/01/22 04:57:39;;;;;;;1.90;1.67;;;;;;;4.71;100.00;99310.47;5112015;28;20201;-63
2023/01/22 05:00:09;;;;;;;3.83;2.17;;;;;;;4.64;100.00;99314.16;5111659;28;20217;-63
2023/01/22 05:02:36;;;;;;;1.53;1.43;;;;;;;4.70;100.00;99324.84;5111849;28;20268;-63
2023/01/22 05:05:03;;;;;;;1.97;1.83;;;;;;;4.68;100.00;99324.09;5111433;28;20224;-63
2023/01/22 05:07:30;;;;;;;1.60;1.50;;;;;;;4.58;100.00;99319.50;5111641;28;20197;-61
2023/01/22 05:09:57;;;;;;;2.67;2.33;;;;;;;4.61;100.00;99320.19;5111500;28;20229;-63
2023/01/22 05:12:25;;;;;;;2.40;1.90;;;;;;;4.64;100.00;99320.03;5111715;28;20205;-61
2023/01/22 05:14:52;;;;;;;2.93;2.23;;;;;;;4.57;100.00;99328.81;5111452;28;20220;-61
2023/01/22 05:17:19;;;;;;;2.57;2.37;;;;;;;4.50;100.00;99327.41;5111403;28;20205;-61
2023/01/22 05:19:46;;;;;;;2.47;2.27;;;;;;;4.62;100.00;99326.06;5111479;28;20220;-63
2023/01/22 05:22:13;;;;;;;2.17;1.77;;;;;;;4.63;100.00;99328.53;5111253;28;20233;-61
2023/01/22 05:24:40;;;;;;;3.40;3.10;;;;;;;4.56;100.00;99331.41;5111371;28;20709;-63
2023/01/22 05:27:06;;;;;;;2.03;1.83;;;;;;;4.44;100.00;99336.09;5111323;28;20787;-63
2023/01/22 05:29:35;;;;;;;4.17;2.33;;;;;;;4.37;100.00;99338.97;5111168;28;20220;-61
2023/01/22 05:32:01;;;;;;;2.13;1.90;;;;;;;4.37;100.00;99334.75;5111222;28;20695;-61
2023/01/22 05:34:28;;;;;;;3.20;2.00;;;;;;;4.42;100.00;99339.59;5110867;27;20217;-63
2023/01/22 05:36:55;;;;;;;1.73;1.53;;;;;;;4.42;100.00;99349.72;5111019;28;20197;-61
2023/01/22 05:39:22;;;;;;;2.73;1.70;;;;;;;4.37;100.00;99341.50;5111039;28;20228;-61
2023/01/22 05:41:49;;;;;;;6.90;2.13;;;;;;;4.53;100.00;99343.28;5110786;28;20229;-61
2023/01/22 05:44:16;;;;;;;2.07;1.77;;;;;;;4.56;100.00;99347.41;5110446;28;20209;-61
2023/01/22 05:46:44;;;;;;;3.57;2.50;;;;;;;4.53;100.00;99347.53;5110499;28;20208;-63
2023/01/22 05:49:11;;;;;;;2.57;1.80;;;;;;;4.57;100.00;99349.06;5110994;27;20225;-61
2023/01/22 05:51:37;;;;;;;4.63;2.30;;;;;;;4.64;100.00;99350.44;5110910;28;20205;-61
2023/01/22 05:54:04;;;;;;;2.40;1.93;;;;;;;4.65;100.00;99354.59;5110691;28;20628;-61
2023/01/22 05:56:31;;;;;;;3.13;2.13;;;;;;;4.77;100.00;99355.81;5110624;28;20204;-61
2023/01/22 05:58:58;;;;;;;1.87;1.77;;;;;;;4.78;100.00;99351.56;5110553;28;20213;-63
2023/01/22 06:01:26;;;;;;;1.50;1.40;;;;;;;4.92;100.00;99359.38;5110573;28;20232;-63
2023/01/22 06:03:54;;;;;;;2.07;1.90;;;;;;;5.13;100.00;99360.91;5110339;28;20218;-61
2023/01/22 06:06:21;;;;;;;2.57;1.70;;;;;;;5.26;100.00;99362.88;5110582;28;20204;-65
2023/01/22 06:08:50;;;;;;;1.50;1.40;;;;;;;5.19;100.00;99365.72;5110565;28;20225;-61
2023/01/22 06:11:17;;;;;;;1.60;1.30;;;;;;;5.15;100.00;99373.53;5110607;28;20201;-64
2023/01/22 06:13:44;;;;;;;3.53;2.17;;;;;;;5.28;100.00;99371.25;5110505;28;20244;-61
2023/01/22 06:16:11;;;;;;;4.47;2.07;;;;;;;5.35;100.00;99382.75;5110625;28;20204;-61
2023/01/22 06:18:38;;;;;;;3.07;2.60;;;;;;;5.39;100.00;99369.03;5110218;28;20217;-61
2023/01/22 06:21:07;;;;;;;2.03;1.50;;;;;;;5.45;100.00;99383.97;5110359;28;20225;-61
2023/01/22 06:23:35;;;;;;;1.80;1.70;;;;;;;5.54;100.00;99390.34;5110398;28;20224;-61
2023/01/22 06:26:05;;;;;;;2.77;2.57;;;;;;;5.83;100.00;99388.97;5110644;28;20701;-64
2023/01/22 06:28:32;;;;;;;3.40;1.70;;;;;;;5.94;100.00;99396.91;5110243;28;20225;-61
2023/01/22 06:31:04;;;;;;;2.23;1.37;;;;;;;6.01;100.00;99399.97;5110335;28;20201;-62
2023/01/22 06:33:33;;;;;;;2.77;1.43;;;;;;;6.05;100.00;99407.38;5110198;28;20249;-61
2023/01/22 06:36:00;;;;;;;3.70;2.23;;;;;;;6.17;100.00;99412.72;5110376;28;20661;-63
2023/01/22 06:38:29;;;;;;;5.03;1.73;;;;;;;6.17;100.00;99422.88;5109815;28;20197;-61
2023/01/22 06:40:58;;;;;;;4.73;2.17;;;;;;;6.23;100.00;99427.69;5109970;28;20204;-62
2023/01/22 06:43:26;;;;;;;3.93;1.90;;;;;;;6.39;100.00;99433.63;5109835;28;20207;-63
2023/01/22 06:45:55;;;;;;;2.70;2.13;;;;;;;6.47;100.00;99439.16;5110093;28;20212;-61
2023/01/22 06:48:22;;;;;;;4.27;2.10;;;;;;;6.62;100.00;99439.28;5109886;28;20197;-63
2023/01/22 06:50:49;;;;;;;3.53;2.17;;;;;;;6.67;100.00;99442.44;5109956;28;20197;-61
2023/01/22 06:53:15;;;;;;;2.63;2.30;;;;;;;6.80;100.00;99449.31;5110099;28;20681;-63
2023/01/22 06:55:44;;;;;;;1.53;1.20;;;;;;;6.93;100.00;99447.00;5110081;28;20193;-61
2023/01/22 06:58:11;;;;;;;2.10;1.77;;;;;;;7.08;100.00;99452.19;5113830;28;20197;-63
2023/01/22 07:00:37;;;;;;;2.63;1.97;;;;;;;7.24;100.00;99442.84;5114214;28;20212;-61
2023/01/22 07:03:08;;;;;;;2.30;2.10;;;;;;;7.35;100.00;99445.66;5114163;28;20232;-63
2023/01/22 07:05:35;;;;;;;1.57;1.33;;;;;;;7.45;100.00;99446.81;5114097;28;20611;-63
2023/01/22 07:08:02;;;;;;;4.07;2.20;;;;;;;7.57;100.00;99454.69;5113898;28;20197;-60
2023/01/22 07:10:29;;;;;;;3.47;2.20;;;;;;;7.75;100.00;99458.78;5113877;28;20217;-61
2023/01/22 07:12:58;;;;;;;3.30;2.77;;;;;;;7.87;100.00;99454.72;5113752;28;20212;-61
2023/01/22 07:15:26;;;;;;;6.70;2.20;;;;;;;7.92;100.00;99461.22;5113617;28;20470;-61
2023/01/22 07:17:54;;;;;;;2.67;1.83;;;;;;;8.04;100.00;99472.44;5113746;28;20201;-61
2023/01/22 07:20:23;;;;;;;3.77;2.33;;;;;;;8.00;100.00;99462.50;5113637;28;20701;-61
2023/01/22 07:22:50;;;;;;;2.23;1.43;;;;;;;8.03;100.00;99469.97;5113629;28;20229;-62
2023/01/22 07:25:17;;;;;;;2.00;1.70;;;;;;;8.12;100.00;99479.66;5113578;28;20217;-61
2023/01/22 07:27:44;;;;;;;4.53;2.37;;;;;;;8.19;100.00;99477.59;5113644;28;20201;-62
2023/01/22 07:30:13;;;;;;;3.13;1.87;;;;;;;8.25;100.00;99493.34;5113527;28;20221;-61
2023/01/22 07:32:40;;;;;;;1.40;1.27;;;;;;;8.25;100.00;99500.97;5113441;28;20205;-61
2023/01/22 07:35:07;;;;;;;3.37;1.87;;;;;;;8.23;100.00;99495.16;5113565;28;20474;-61
2023/01/22 07:37:35;;;;;;;1.90;1.50;;;;;;;8.32;100.00;99486.16;5113509;28;20213;-61
2023/01/22 07:40:02;;;;;;;2.33;2.10;;;;;;;8.41;100.00;99492.50;5113716;28;20217;-61
2023/01/22 07:42:28;;;;;;;2.03;1.83;;;;;;;8.38;100.00;99496.88;5113078;28;20229;-62
2023/01/22 07:44:55;;;;;;;2.20;1.60;;;;;;;8.34;100.00;99497.91;5113222;28;20240;-62
2023/01/22 07:47:24;;;;;;;1.97;1.43;;;;;;;8.32;100.00;99499.75;5113137;28;20216;-62
2023/01/22 07:49:50;;;;;;;2.33;2.13;;;;;;;8.38;100.00;99501.13;5112934;28;20759;-61
2023/01/22 07:52:17;;;;;;;1.10;1.00;;;;;;;8.39;100.00;99503.59;5113247;28;20195;-61
2023/01/22 07:54:44;;;;;;;1.63;1.53;;;;;;;8.43;100.00;99509.34;5113133;28;20217;-61
2023/01/22 07:57:14;;;;;;;2.47;1.77;;;;;;;8.44;100.00;99515.28;5113004;28;20197;-61
2023/01/22 07:59:41;;;;;;;2.87;1.67;;;;;;;8.47;100.00;99507.47;5113273;28;20271;-62
2023/01/22 08:02:12;;;;;;;1.87;1.77;;;;;;;8.50;100.00;99503.00;5113083;28;20235;-62
2023/01/22 08:04:40;;;;;;;3.23;1.63;;;;;;;8.56;100.00;99501.84;5113151;28;20696;-61
2023/01/22 08:07:14;;;;;;;1.30;1.13;;;;;;;8.49;100.00;99514.09;5113142;28;20227;-62
2023/01/22 08:09:41;;;;;;;0.90;0.90;;;;;;;8.57;100.00;99518.75;5112308;28;20220;-62
2023/01/22 08:12:08;;;;;;;2.07;1.87;;;;;;;8.62;100.00;99532.06;5112843;28;20201;-61
2023/01/22 08:14:35;;;;;;;2.93;2.07;;;;;;;8.46;100.00;99531.28;5113097;28;20221;-62
2023/01/22 08:17:02;;;;;;;2.20;1.73;;;;;;;8.46;100.00;99534.66;5112699;28;20677;-62
2023/01/22 08:19:29;;;;;;;1.83;1.70;;;;;;;8.54;100.00;99546.97;5112671;28;20221;-61
2023/01/22 08:21:57;;;;;;;5.47;3.57;;;;;;;8.46;100.00;99547.38;5112871;28;20233;-62
2023/01/22 08:24:24;;;;;;;3.77;2.83;;;;;;;8.13;100.00;99555.16;5112400;28;20224;-62
2023/01/22 08:26:51;;;;;;;5.67;2.57;;;;;;;8.27;100.00;99547.56;5112618;28;20327;-61
2023/01/22 08:29:18;;;;;;;3.17;2.00;;;;;;;8.46;100.00;99542.28;5112554;28;20213;-61
2023/01/22 08:31:45;;;;;;;3.13;2.83;;;;;;;8.64;100.00;99540.47;5112743;28;20205;-62
2023/01/22 08:34:11;;;;;;;2.30;2.07;;;;;;;8.45;100.00;99534.75;5112443;28;20248;-61
2023/01/22 08:36:38;;;;;;;2.13;1.90;;;;;;;8.37;100.00;99533.41;5112502;28;20212;-61
2023/01/22 08:39:06;;;;;;;4.77;2.60;;;;;;;8.29;100.00;99532.19;5112320;28;20224;-62
2023/01/22 08:41:33;;;;;;;3.73;2.70;;;;;;;8.34;100.00;99533.56;5112337;28;20205;-61
2023/01/22 08:44:00;;;;;;;2.77;2.10;;;;;;;8.25;100.00;99544.28;5111921;28;20221;-61
2023/01/22 08:46:27;;;;;;;2.87;1.93;;;;;;;8.24;100.00;99547.75;5112301;28;20216;-62
2023/01/22 08:48:54;;;;;;;3.67;2.57;;;;;;;8.47;100.00;99545.69;5111850;28;20718;-61
2023/01/22 08:51:23;;;;;;;2.37;2.17;;;;;;;8.43;100.00;99546.75;5112091;27;20203;-62
2023/01/22 08:53:50;;;;;;;2.70;2.30;;;;;;;8.52;100.00;99546.22;5111901;28;20240;-61
2023/01/22 08:56:18;;;;;;;2.67;2.23;;;;;;;8.30;100.00;99562.69;5111915;28;20201;-62
2023/01/22 08:58:49;;;;;;;6.23;2.57;;;;;;;8.23;100.00;99575.84;5111533;28;20213;-62
2023/01/22 09:01:16;;;;;;;3.73;2.43;;;;;;;8.29;100.00;99576.34;5111869;28;20665;-61
2023/01/22 09:03:43;;;;;;;4.47;3.37;;;;;;;8.30;100.00;99561.88;5111940;28;20306;-61
2023/01/22 09:06:10;;;;;;;3.73;3.07;;;;;;;8.32;100.00;99571.06;5112241;28;20194;-61
2023/01/22 09:08:37;;;;;;;1.93;1.83;;;;;;;8.14;100.00;99569.53;5111361;28;20217;-61
2023/01/22 09:11:04;;;;;;;3.63;3.07;;;;;;;8.07;100.00;99570.78;5111724;28;20205;-61
2023/01/22 09:13:32;;;;;;;3.27;2.60;;;;;;;8.19;100.00;99566.72;5111564;28;20233;-62
2023/01/22 09:15:59;;;;;;;3.83;2.93;;;;;;;8.05;100.00;99567.47;5111696;28;20201;-61
2023/01/22 09:18:26;;;;;;;2.07;1.57;;;;;;;7.57;100.00;99576.81;5111244;28;20368;-62
2023/01/22 09:20:53;;;;;;;3.27;2.73;;;;;;;7.69;100.00;99573.63;5111490;28;20201;-61
2023/01/22 09:23:21;;;;;;;3.90;3.27;;;;;;;7.77;100.00;99573.25;5111463;28;20235;-62
2023/01/22 09:25:48;;;;;;;4.20;2.20;;;;;;;7.67;100.00;99571.16;5111237;28;20194;-61
2023/01/22 09:28:14;;;;;;;5.83;3.20;;;;;;;7.62;100.00;99574.84;5111126;28;20586;-62
2023/01/22 09:30:43;;;;;;;2.53;2.33;;;;;;;7.89;100.00;99578.50;5111219;28;20231;-62
2023/01/22 09:33:10;;;;;;;3.13;2.50;;;;;;;7.97;100.00;99574.69;5111384;28;20205;-61
2023/01/22 09:35:37;;;;;;;4.53;2.57;;;;;;;7.76;100.00;99577.47;5111544;28;20198;-61
2023/01/22 09:38:04;;;;;;;4.60;3.13;;;;;;;7.90;100.00;99564.84;5111071;28;20205;-61
2023/01/22 09:40:36;;;;;;;3.93;2.70;;;;;;;7.83;100.00;99563.53;5111134;28;20372;-61
2023/01/22 09:43:05;;;;;;;3.23;2.50;;;;;;;8.01;100.00;99566.00;5110832;28;20709;-61
2023/01/22 09:45:37;;;;;;;6.30;2.87;;;;;;;7.99;100.00;99578.00;5111020;28;20228;-61
2023/01/22 09:48:12;;;;;;;3.47;3.13;;;;;;;8.07;100.00;99573.31;5110945;28;20201;-61
2023/01/22 09:50:41;;;;;;;4.07;2.67;;;;;;;8.18;100.00;99585.47;5111163;28;20211;-62
2023/01/22 09:53:13;;;;;;;3.03;2.27;;;;;;;8.06;100.00;99574.22;5110678;28;20200;-62
2023/01/22 09:55:44;;;;;;;3.07;2.43;;;;;;;8.13;100.00;99566.16;5110942;28;20201;-62
2023/01/22 09:58:15;;;;;;;3.47;2.00;;;;;;;7.92;100.00;99557.97;5109808;28;20201;-61
2023/01/22 10:00:47;;;;;;;2.67;2.47;;;;;;;7.91;100.00;99553.78;5110441;28;20204;-61
2023/01/22 10:03:22;;;;;;;3.37;3.07;;;;;;;7.88;100.00;99546.31;5110638;28;20229;-61
2023/01/22 10:05:52;;;;;;;3.67;3.27;;;;;;;7.85;100.00;99551.56;5109971;28;20193;-61
2023/01/22 10:08:23;;;;;;;3.37;2.30;;;;;;;7.93;100.00;99559.59;5110310;28;20208;-61
2023/01/22 10:10:50;;;;;;;2.47;2.27;;;;;;;8.04;100.00;99571.75;5110568;28;20205;-61
2023/01/22 10:13:20;;;;;;;4.50;2.33;;;;;;;8.17;100.00;99587.19;5110204;28;20243;-62
2023/01/22 10:15:48;;;;;;;6.63;2.70;;;;;;;8.23;100.00;99580.94;5110305;28;20220;-61
2023/01/22 10:18:32;;;;;;;3.27;2.67;;;;;;;8.30;100.00;99584.81;5110063;28;20200;-61
2023/01/22 10:21:03;;;;;;;5.63;3.73;;;;;;;8.07;100.00;99565.69;5110707;28;20193;-61
2023/01/22 10:23:33;;;;;;;4.90;2.73;;;;;;;8.11;100.00;99562.03;5110423;28;20235;-62
2023/01/22 10:26:12;;;;;;;3.37;2.97;;;;;;;8.28;100.00;99564.50;5109428;28;20207;-62
2023/01/22 10:28:45;;;;;;;2.33;2.10;;;;;;;8.41;100.00;99554.50;5109871;28;20221;-63
2023/01/22 10:31:23;;;;;;;5.90;3.10;;;;;;;8.42;100.00;99560.41;5109366;28;20200;-63
2023/01/22 10:33:58;;;;;;;3.33;2.07;;;;;;;8.38;100.00;99557.19;5109915;28;20220;-63
2023/01/22 10:36:26;;;;;;;8.87;3.17;;;;;;;8.54;100.00;99546.97;5110022;28;20217;-61
2023/01/22 10:39:04;;;;;;;5.33;2.67;;;;;;;9.10;100.00;99562.47;5109850;28;20225;-61
2023/01/22 10:41:31;;;;;;;6.30;3.17;;;;;;;9.36;100.00;99569.41;5110089;28;20193;-61
2023/01/22 10:44:08;;;;;;;3.27;2.47;;;;;;;9.49;100.00;99574.59;5109760;28;20321;-62
2023/01/22 10:46:35;;;;;;;4.03;2.97;;;;;;;9.67;100.00;99562.47;5110150;28;20185;-63
2023/01/22 10:49:07;;;;;;;3.20;2.60;;;;;;;9.76;100.00;99577.22;5109964;28;20220;-63
2023/01/22 10:51:38;;;;;;;7.13;3.07;;;;;;;9.56;100.00;99570.75;5109713;28;20590;-63
2023/01/22 10:54:19;;;;;;;2.83;2.40;;;;;;;9.65;100.00;99570.19;5109651;28;20622;-61
2023/01/22 10:56:46;;;;;;;5.60;3.57;;;;;;;9.78;100.00;99564.38;5110046;28;20200;-61
2023/01/22 10:59:24;;;;;;;3.50;3.03;;;;;;;9.87;100.00;99571.47;5109869;28;20213;-61
2023/01/22 11:01:58;;;;;;;7.63;3.87;;;;;;;9.94;100.00;99570.16;5109789;28;20224;-62
2023/01/22 11:04:28;;;;;;;5.53;4.03;;;;;;;10.04;100.00;99573.78;5109233;28;20289;-62
2023/01/22 11:06:59;;;;;;;5.53;3.10;;;;;;;9.96;100.00;99586.22;5109791;28;20204;-63
2023/01/22 11:09:37;;;;;;;10.13;4.30;;;;;;;9.85;100.00;99586.88;5109453;28;20209;-61
2023/01/22 11:12:12;;;;;;;4.30;2.97;;;;;;;9.61;100.00;99594.28;5109863;28;20200;-61
2023/01/22 11:14:39;;;;;;;6.33;3.83;;;;;;;9.44;100.00;99586.81;5109593;28;20217;-63
2023/01/22 11:17:20;;;;;;;3.83;2.73;;;;;;;9.42;100.00;99583.53;5109810;28;20207;-61
2023/01/22 11:19:56;;;;;;;5.63;3.77;;;;;;;9.05;100.00;99585.69;5109285;28;20225;-63
2023/01/22 11:22:28;;;;;;;5.60;3.10;;;;;;;8.77;100.00;99587.28;5110084;28;20203;-61
2023/01/22 11:24:56;;;;;;;3.83;3.03;;;;;;;8.61;100.00;99586.50;5109461;28;20819;-61
2023/01/22 11:27:50;;;;;;;8.77;4.83;;;;;;;8.82;100.00;99585.28;5109518;28;20202;-62
2023/01/22 11:30:40;;;;;;;3.70;3.33;;;;;;;8.72;100.00;99579.06;5095520;28;20307;-62
2023/01/22 11:33:19;;;;;;;4.90;3.67;;;;;;;8.66;100.00;99593.88;5109298;28;20262;-62
2023/01/22 11:35:53;;;;;;;11.67;4.47;;;;;;;8.72;100.00;99583.34;5109395;28;20201;-62
2023/01/22 11:38:29;;;;;;;9.67;5.30;;;;;;;8.77;100.00;99589.81;5109063;28;20246;-62
2023/01/22 11:41:09;;;;;;;5.37;3.07;;;;;;;8.74;100.00;99587.44;5109402;28;20256;-62
2023/01/22 11:44:06;;;;;;;4.57;3.43;;;;;;;8.75;100.00;99588.25;5111091;28;20236;-61
2023/01/22 11:46:49;;;;;;;4.80;2.93;;;;;;;9.03;100.00;99592.63;5113374;28;20189;-61
2023/01/22 11:49:30;;;;;;;2.97;2.33;;;;;;;9.14;100.00;99584.34;5112726;28;20233;-62